Time;durP1;ratioP1;P1;durP2;ratioP2;P2;SDS_P1;SDS_P2;PMS_P1;PMS_P2;Temp;Humidity;BMP_temperature;BMP_pressure;BME280_temperature;BME280_humidity;BME280_pressure;Samples;Min_cycle;Max_cycle;Signal;HPM_P1;HPM_P2
2022/04/10 00:00:58;;;;;;;38.35;21.27;;;;;;;0.87;86.13;98489.67;4444171;79;20998;-86
2022/04/10 00:07:02;;;;;;;45.58;23.90;;;;;;;0.64;86.39;98492.94;4451436;78;22231;-86
2022/04/10 00:13:05;;;;;;;49.20;23.90;;;;;;;0.59;86.50;98501.19;4444735;79;22172;-86
2022/04/10 00:19:06;;;;;;;40.88;20.85;;;;;;;0.45;86.43;98502.73;4442937;79;21552;-85
2022/04/10 00:25:10;;;;;;;40.17;21.00;;;;;;;0.39;86.92;98511.30;4448605;78;21178;-86
2022/04/10 00:31:11;;;;;;;38.33;18.55;;;;;;;0.42;87.28;98513.35;4421128;79;21091;-85
2022/04/10 00:37:12;;;;;;;35.00;18.05;;;;;;;0.42;87.39;98522.77;4419866;79;21587;-85
2022/04/10 00:43:15;;;;;;;35.87;17.63;;;;;;;0.46;87.42;98529.89;4415913;79;21008;-85
2022/04/10 00:49:19;;;;;;;33.00;17.17;;;;;;;0.32;86.63;98542.74;4423117;79;21644;-86
2022/04/10 00:55:20;;;;;;;32.30;16.12;;;;;;;0.10;87.53;98548.84;4420584;79;21011;-87
2022/04/10 01:01:21;;;;;;;29.45;14.47;;;;;;;0.06;87.60;98546.56;4433641;79;21504;-85
2022/04/10 01:07:22;;;;;;;23.55;12.82;;;;;;;0.12;87.49;98546.64;4412694;79;21091;-85
2022/04/10 01:13:25;;;;;;;29.63;14.77;;;;;;;0.14;88.03;98545.77;4417651;79;22173;-86
2022/04/10 01:19:26;;;;;;;24.23;12.30;;;;;;;0.18;88.13;98547.51;4419701;79;21035;-85
2022/04/10 01:25:29;;;;;;;28.83;13.93;;;;;;;0.20;87.72;98534.53;4429661;78;21075;-86
2022/04/10 01:31:34;;;;;;;24.82;13.35;;;;;;;0.20;88.23;98548.53;4458313;79;21047;-85
2022/04/10 01:37:37;;;;;;;22.65;12.98;;;;;;;0.19;88.25;98550.42;4443362;78;21062;-85
2022/04/10 01:43:49;;;;;;;25.10;12.97;;;;;;;0.18;88.29;98553.44;4442227;79;21416;-85
2022/04/10 01:49:50;;;;;;;22.05;12.78;;;;;;;0.14;88.13;98553.84;4451560;79;21058;-85
2022/04/10 01:55:51;;;;;;;23.37;13.43;;;;;;;0.16;88.35;98557.80;4450456;78;21046;-85
2022/04/10 02:01:53;;;;;;;22.23;11.90;;;;;;;0.20;88.97;98558.76;4452923;79;21023;-85
2022/04/10 02:07:55;;;;;;;19.80;11.30;;;;;;;0.30;88.77;98567.06;4446887;79;21031;-85
2022/04/10 02:13:58;;;;;;;21.93;11.47;;;;;;;0.27;89.18;98575.78;4429362;79;21903;-85
2022/04/10 02:20:00;;;;;;;21.73;11.87;;;;;;;0.24;89.09;98581.23;4437878;79;21050;-85
2022/04/10 02:26:02;;;;;;;29.87;13.77;;;;;;;0.21;89.27;98595.87;4444373;79;21068;-84
2022/04/10 02:32:05;;;;;;;17.95;10.63;;;;;;;0.22;89.22;98593.44;4417348;79;21053;-84
2022/04/10 02:38:07;;;;;;;20.60;11.73;;;;;;;0.23;89.20;98595.01;4425927;79;21051;-85
2022/04/10 02:44:08;;;;;;;21.05;12.15;;;;;;;0.21;89.12;98602.05;4414526;79;21056;-84
2022/04/10 02:50:13;;;;;;;21.93;12.10;;;;;;;0.19;89.41;98611.56;4420243;79;20980;-84
2022/04/10 02:56:16;;;;;;;30.80;12.73;;;;;;;0.19;89.54;98619.06;4425733;79;20983;-84
2022/04/10 03:02:18;;;;;;;25.52;13.10;;;;;;;0.20;89.91;98627.94;4426556;79;20988;-83
2022/04/10 03:08:21;;;;;;;28.37;13.53;;;;;;;0.17;89.52;98628.58;4277189;79;33569;-84
2022/04/10 03:14:25;;;;;;;26.10;14.83;;;;;;;0.13;89.71;98643.22;4209265;82;21098;-85
2022/04/10 03:20:28;;;;;;;23.10;13.37;;;;;;;0.12;90.41;98651.06;4115832;85;21050;-84
2022/04/10 03:26:30;;;;;;;26.52;14.90;;;;;;;0.12;90.22;98662.37;4140095;85;21078;-83
2022/04/10 03:32:32;;;;;;;33.00;16.60;;;;;;;0.11;90.48;98660.22;4204367;84;21054;-82
2022/04/10 03:38:34;;;;;;;37.87;18.37;;;;;;;0.14;90.63;98663.66;4198754;83;21380;-83
2022/04/10 03:44:35;;;;;;;33.57;17.03;;;;;;;0.18;90.71;98678.60;4198019;84;21665;-85
2022/04/10 03:50:36;;;;;;;37.27;18.53;;;;;;;0.13;90.63;98686.28;4200558;83;21102;-83
2022/04/10 03:56:39;;;;;;;27.40;16.07;;;;;;;0.10;90.60;98693.64;4177554;84;21052;-83
2022/04/10 04:02:42;;;;;;;29.00;16.10;;;;;;;0.06;90.63;98700.77;4201454;84;21072;-83
2022/04/10 04:08:44;;;;;;;33.33;18.52;;;;;;;0.02;91.00;98711.90;4122944;85;21075;-83
2022/04/10 04:14:46;;;;;;;32.63;16.23;;;;;;;-0.01;90.90;98724.09;4177600;83;21023;-82
2022/04/10 04:20:48;;;;;;;31.60;18.40;;;;;;;-0.01;91.05;98724.64;4201067;83;21035;-85
2022/04/10 04:26:49;;;;;;;26.90;15.50;;;;;;;-0.02;90.92;98733.25;4190448;84;21975;-82
2022/04/10 04:32:51;;;;;;;26.67;14.80;;;;;;;-0.05;90.97;98732.53;4187300;83;21506;-83
2022/04/10 04:38:56;;;;;;;28.23;16.10;;;;;;;-0.06;91.37;98740.38;4206556;82;21047;-84
2022/04/10 04:44:57;;;;;;;26.17;14.23;;;;;;;0.00;91.45;98743.16;4198961;82;21328;-83
2022/04/10 04:51:00;;;;;;;27.43;15.73;;;;;;;0.05;91.36;98750.87;4199886;83;21415;-83
2022/04/10 04:57:02;;;;;;;28.83;16.30;;;;;;;0.10;91.77;98761.47;4201764;83;21067;-84
2022/04/10 05:03:05;;;;;;;27.70;15.05;;;;;;;0.20;92.02;98763.88;4197942;84;21543;-83
2022/04/10 05:09:06;;;;;;;25.20;16.87;;;;;;;0.32;92.29;98772.14;4189885;84;21035;-84
2022/04/10 05:15:09;;;;;;;29.55;17.92;;;;;;;0.52;92.79;98776.95;4201690;84;21055;-84
2022/04/10 05:21:12;;;;;;;33.38;18.62;;;;;;;0.77;92.55;98782.36;4206142;84;21136;-86
2022/04/10 05:27:14;;;;;;;27.07;16.37;;;;;;;1.15;93.08;98794.66;4119224;86;21180;-85
2022/04/10 05:33:18;;;;;;;29.20;18.37;;;;;;;1.45;92.69;98798.53;4201469;83;21057;-86
2022/04/10 05:39:20;;;;;;;28.47;18.85;;;;;;;1.72;93.02;98802.75;4171100;84;21067;-87
2022/04/10 05:45:22;;;;;;;31.20;17.75;;;;;;;2.03;92.80;98810.59;4193196;83;21740;-88
2022/04/10 05:51:25;;;;;;;24.87;16.62;;;;;;;2.17;92.96;98809.27;4184699;84;21049;-88
2022/04/10 05:57:31;;;;;;;24.47;15.83;;;;;;;2.32;92.73;98811.41;4092083;85;21103;-87
2022/04/10 06:03:32;;;;;;;25.65;15.13;;;;;;;2.42;92.64;98812.95;4206331;83;21039;-87
2022/04/10 06:09:37;;;;;;;32.48;18.57;;;;;;;2.53;92.56;98824.43;4202795;84;21043;-88
2022/04/10 06:15:39;;;;;;;31.42;19.95;;;;;;;2.61;92.74;98824.14;4202326;83;21011;-88
2022/04/10 06:21:41;;;;;;;30.57;18.17;;;;;;;2.73;92.82;98826.38;4202306;83;21098;-88
2022/04/10 06:27:43;;;;;;;28.98;17.37;;;;;;;2.92;92.50;98830.78;4127637;84;21602;-86
2022/04/10 06:33:49;;;;;;;34.05;20.90;;;;;;;3.03;92.57;98835.23;4191610;83;21122;-85
2022/04/10 06:39:51;;;;;;;29.95;18.67;;;;;;;3.08;92.06;98841.27;4201003;83;21035;-88
2022/04/10 06:45:57;;;;;;;30.45;19.20;;;;;;;3.23;91.85;98844.71;4181342;83;21019;-86
2022/04/10 06:52:01;;;;;;;30.82;20.45;;;;;;;3.39;91.71;98846.26;4201886;83;21019;-87
2022/04/10 06:58:05;;;;;;;31.30;18.75;;;;;;;3.51;91.36;98855.00;4201295;83;21078;-86
2022/04/10 07:04:09;;;;;;;24.75;17.55;;;;;;;3.71;91.45;98852.83;4197630;84;21106;-88
2022/04/10 07:10:10;;;;;;;22.25;14.23;;;;;;;3.85;91.23;98860.89;4202193;84;21098;-85
2022/04/10 07:16:12;;;;;;;25.25;15.88;;;;;;;4.08;90.95;98859.37;4205353;83;21058;-85
2022/04/10 07:28:34;;;;;;;26.85;15.98;;;;;;;4.23;89.57;98879.03;4205064;83;21078;-87
2022/04/10 07:34:36;;;;;;;25.20;16.00;;;;;;;4.30;89.43;98877.12;4189370;84;21472;-85
2022/04/10 07:40:40;;;;;;;19.52;12.43;;;;;;;4.40;88.79;98878.06;4198033;84;21099;-86
2022/04/10 07:53:03;;;;;;;18.95;9.38;;;;;;;4.36;88.06;98888.77;4190798;83;21093;-87
2022/04/10 07:59:07;;;;;;;15.38;7.30;;;;;;;4.43;88.34;98891.70;4190175;83;21011;-85
2022/04/10 08:05:11;;;;;;;14.90;8.73;;;;;;;4.32;86.92;98891.91;4208863;83;21078;-86
2022/04/10 08:11:39;;;;;;;15.38;9.53;;;;;;;4.38;87.27;98889.79;4132841;85;21153;-86
2022/04/10 08:17:44;;;;;;;15.45;9.43;;;;;;;4.31;86.57;98900.38;4178940;83;21105;-86
2022/04/10 08:23:46;;;;;;;21.02;10.15;;;;;;;4.34;86.09;98911.34;4195603;83;21039;-87
2022/04/10 08:29:49;;;;;;;17.32;9.45;;;;;;;4.37;85.93;98907.19;4207523;83;21063;-88
2022/04/10 08:35:50;;;;;;;14.87;9.65;;;;;;;4.43;85.37;98912.62;4213216;84;21042;-87
2022/04/10 08:41:54;;;;;;;14.55;9.43;;;;;;;4.49;85.68;98918.84;4210348;84;21027;-87
2022/04/10 08:47:56;;;;;;;18.70;10.53;;;;;;;4.61;84.75;98929.70;4203108;84;22000;-86
2022/04/10 08:54:00;;;;;;;15.72;10.15;;;;;;;4.78;84.86;98924.61;4125809;84;21157;-87
2022/04/10 09:00:01;;;;;;;19.62;10.23;;;;;;;4.95;84.33;98928.45;4069512;87;21029;-86
2022/04/10 09:06:09;;;;;;;23.85;11.57;;;;;;;4.96;83.21;98927.90;4071502;87;21084;-86
2022/04/10 09:12:11;;;;;;;26.75;13.80;;;;;;;5.12;83.34;98936.36;4058543;87;21073;-85
2022/04/10 09:18:13;;;;;;;21.65;9.28;;;;;;;5.32;83.52;98935.46;4104004;84;21088;-86
2022/04/10 09:24:15;;;;;;;16.73;8.73;;;;;;;5.45;81.11;98937.00;4048255;87;21492;-86
2022/04/10 09:30:20;;;;;;;15.48;8.53;;;;;;;5.55;82.68;98931.11;4066283;86;21022;-85
2022/04/10 09:36:42;;;;;;;13.00;8.28;;;;;;;5.52;81.37;98933.16;4185902;83;21047;-87
2022/04/10 09:42:43;;;;;;;13.28;7.78;;;;;;;5.70;81.76;98930.97;4206079;83;21078;-86
2022/04/10 09:48:45;;;;;;;14.45;8.10;;;;;;;5.97;81.32;98930.20;4195876;83;21035;-86
2022/04/10 09:54:50;;;;;;;16.87;8.60;;;;;;;6.20;81.20;98923.87;4192080;84;21021;-87
2022/04/10 10:00:54;;;;;;;10.20;6.70;;;;;;;8.11;81.82;98911.41;4195883;83;21039;-84
2022/04/10 10:06:56;;;;;;;10.38;6.25;;;;;;;8.97;78.14;98907.30;4194776;83;21014;-86
2022/04/10 10:13:05;;;;;;;10.65;5.55;;;;;;;9.12;76.25;98893.30;4179369;83;21428;-85
2022/04/10 10:19:09;;;;;;;10.43;5.70;;;;;;;9.09;75.96;98899.50;4183136;83;21078;-87
2022/04/10 10:25:24;;;;;;;9.93;5.40;;;;;;;8.40;75.10;98903.98;4213317;83;21587;-86
2022/04/10 10:31:43;;;;;;;8.83;3.60;;;;;;;7.55;74.16;98933.61;4209509;83;21079;-85
2022/04/10 10:37:52;;;;;;;6.97;3.58;;;;;;;6.28;75.35;98937.08;4204224;83;21572;-86
2022/04/10 10:43:57;;;;;;;8.60;3.80;;;;;;;5.72;76.28;98928.67;4199478;83;21741;-87
2022/04/10 10:49:58;;;;;;;7.62;3.40;;;;;;;5.88;76.95;98929.56;4203541;83;21052;-88
2022/04/10 10:56:00;;;;;;;8.00;2.80;;;;;;;7.77;77.57;98916.57;4207681;83;21035;-87
2022/04/10 11:02:13;;;;;;;8.90;2.70;;;;;;;9.91;76.37;98912.56;4215931;83;21049;-87
2022/04/10 11:08:17;;;;;;;6.30;2.25;;;;;;;11.36;73.58;98914.16;4208947;83;21035;-86
2022/04/10 11:14:36;;;;;;;3.75;1.45;;;;;;;10.83;72.49;98949.94;4208202;83;21060;-85
2022/04/10 11:20:41;;;;;;;3.37;1.85;;;;;;;8.19;72.12;98947.20;4212682;83;21058;-86
2022/04/10 11:26:43;;;;;;;4.50;1.85;;;;;;;7.02;74.05;98940.33;4182398;83;21066;-86
2022/04/10 11:33:01;;;;;;;3.75;1.62;;;;;;;6.77;74.57;98939.73;4193080;83;22102;-86
2022/04/10 11:39:12;;;;;;;7.35;2.50;;;;;;;7.04;73.82;98932.61;4204250;84;21058;-87
2022/04/10 11:45:14;;;;;;;8.30;2.83;;;;;;;7.46;73.48;98923.49;4191998;84;21043;-87
2022/04/10 11:51:15;;;;;;;6.90;2.98;;;;;;;7.36;72.81;98925.98;4196487;84;21118;-87
2022/04/10 11:57:20;;;;;;;8.68;3.75;;;;;;;6.92;72.47;98937.56;4126522;84;21011;-86
2022/04/10 12:03:25;;;;;;;10.53;4.25;;;;;;;6.71;73.50;98932.98;4068941;86;21021;-87
2022/04/10 12:09:30;;;;;;;7.83;3.20;;;;;;;6.90;73.55;98923.55;4135347;84;21053;-87
2022/04/10 12:15:33;;;;;;;5.70;2.55;;;;;;;7.75;73.81;98905.23;4051642;87;21089;-86
2022/04/10 12:21:34;;;;;;;7.37;3.10;;;;;;;8.59;72.05;98896.55;4058176;86;21063;-87
2022/04/10 12:27:36;;;;;;;7.80;2.25;;;;;;;8.97;70.36;98887.42;4071252;86;21975;-86
2022/04/10 12:33:37;;;;;;;5.87;2.85;;;;;;;9.29;67.82;98877.18;4077235;86;21138;-85
2022/04/10 12:39:40;;;;;;;5.22;2.25;;;;;;;9.59;68.66;98873.09;4200626;83;21011;-86
2022/04/10 12:45:44;;;;;;;6.62;2.25;;;;;;;10.37;67.08;98879.69;4193321;83;21031;-86
2022/04/10 12:51:56;;;;;;;3.75;1.60;;;;;;;10.83;63.13;98877.38;4191740;83;21063;-85
2022/04/10 12:58:04;;;;;;;3.50;1.20;;;;;;;10.50;62.63;98882.94;4191822;84;21317;-83
2022/04/10 13:04:08;;;;;;;7.10;2.30;;;;;;;10.63;59.85;98876.03;4183922;83;21088;-86
2022/04/10 13:10:10;;;;;;;5.87;1.65;;;;;;;10.17;58.47;98890.63;4199873;84;21642;-86
2022/04/10 13:16:14;;;;;;;4.75;2.30;;;;;;;10.32;57.56;98886.86;4193756;82;21047;-88
2022/04/10 13:22:18;;;;;;;3.90;1.82;;;;;;;10.47;56.20;98885.06;4192529;83;21095;-88
2022/04/10 13:28:20;;;;;;;5.50;2.02;;;;;;;10.71;58.87;98879.03;4192975;84;21110;-86
2022/04/10 13:34:23;;;;;;;3.70;2.12;;;;;;;10.57;57.67;98879.68;4203232;84;21079;-86
2022/04/10 13:40:26;;;;;;;4.25;2.08;;;;;;;10.26;56.81;98891.10;4189781;83;21039;-86
2022/04/10 13:46:28;;;;;;;7.58;3.67;;;;;;;10.14;57.30;98881.00;4194902;84;21073;-88
2022/04/10 13:52:32;;;;;;;5.10;2.25;;;;;;;9.51;57.43;98882.35;4206457;83;21082;-87
2022/04/10 13:58:34;;;;;;;3.85;2.33;;;;;;;9.49;56.19;98892.85;4197886;83;21003;-86
2022/04/10 14:04:36;;;;;;;7.00;2.27;;;;;;;9.75;56.70;98892.03;4200814;84;21027;-85
2022/04/10 14:10:38;;;;;;;3.90;2.22;;;;;;;9.57;55.25;98897.27;4200886;83;21204;-85
2022/04/10 14:16:39;;;;;;;4.40;2.47;;;;;;;8.87;55.50;98897.02;4202315;83;21052;-84
2022/04/10 14:22:44;;;;;;;19.98;10.10;;;;;;;8.76;56.31;98890.59;4195288;84;21075;-85
2022/04/10 14:28:45;;;;;;;12.05;5.75;;;;;;;8.80;56.48;98889.30;4196390;84;21055;-86
2022/04/10 14:34:47;;;;;;;9.40;4.15;;;;;;;9.00;54.43;98882.03;4256152;83;21099;-87
2022/04/10 14:40:49;;;;;;;4.75;2.37;;;;;;;8.97;55.04;98888.79;4245960;83;21012;-86
2022/04/10 14:46:51;;;;;;;2.77;1.82;;;;;;;9.09;53.05;98888.01;4232962;83;21099;-85
2022/04/10 14:52:52;;;;;;;4.17;2.30;;;;;;;9.17;53.76;98899.82;4257171;83;21024;-86
2022/04/10 14:58:56;;;;;;;4.00;2.00;;;;;;;9.35;52.25;98900.85;4266780;83;20984;-85
2022/04/10 15:04:57;;;;;;;3.20;1.98;;;;;;;9.33;53.86;98911.38;4265185;83;21695;-87
2022/04/10 15:11:00;;;;;;;6.60;2.30;;;;;;;8.68;54.07;98914.03;4249391;83;21151;-87
2022/04/10 15:17:02;;;;;;;3.58;2.42;;;;;;;8.00;53.82;98922.11;4252435;83;21046;-87
2022/04/10 15:23:03;;;;;;;6.15;2.83;;;;;;;7.63;54.60;98930.45;4255180;83;21077;-86
2022/04/10 15:29:07;;;;;;;5.25;2.92;;;;;;;7.36;54.44;98943.69;4235309;83;21112;-87
2022/04/10 15:35:12;;;;;;;7.87;3.20;;;;;;;7.02;54.98;98947.94;4255066;83;21960;-86
2022/04/10 15:41:13;;;;;;;7.22;3.58;;;;;;;6.85;55.38;98957.81;4260765;83;21024;-88
2022/04/10 15:47:15;;;;;;;6.97;3.62;;;;;;;6.69;56.48;98973.92;4260772;83;21063;-86
2022/04/10 15:53:16;;;;;;;6.60;3.98;;;;;;;6.53;57.53;98985.34;4256342;83;21031;-85
2022/04/10 15:59:18;;;;;;;7.03;2.85;;;;;;;6.30;58.86;99000.86;4259184;83;21360;-87
2022/04/10 16:05:22;;;;;;;8.05;3.98;;;;;;;6.29;59.73;98991.69;4258984;83;21614;-87
2022/04/10 16:11:24;;;;;;;6.55;3.47;;;;;;;6.40;60.32;98990.05;4272462;83;21057;-86
2022/04/10 16:17:25;;;;;;;6.28;3.40;;;;;;;6.53;60.91;98989.42;4259834;83;21000;-87
2022/04/10 16:23:27;;;;;;;5.25;3.40;;;;;;;6.42;61.73;99000.02;4263264;83;21036;-87
2022/04/10 16:35:49;;;;;;;7.35;4.40;;;;;;;6.28;62.25;99000.41;4246810;83;20987;-84
2022/04/10 16:41:50;;;;;;;6.08;3.50;;;;;;;6.01;62.20;99013.98;4240737;83;21003;-86
2022/04/10 16:47:52;;;;;;;7.42;4.22;;;;;;;5.79;62.41;99015.27;4253631;83;21612;-87
2022/04/10 16:54:46;;;;;;;6.70;4.60;;;;;;;5.59;62.65;99020.84;4249270;83;21156;-87
2022/04/10 17:00:05;;;;;;;;;;;;;;;5.32;63.69;99033.17;4242381;83;21103;-88
2022/04/10 17:06:07;;;;;;;7.92;5.12;;;;;;;5.21;64.49;99038.02;4278336;83;20117;-85
2022/04/10 17:12:10;;;;;;;15.48;5.62;;;;;;;5.12;64.54;99059.05;4251942;83;20993;-86
2022/04/10 17:18:12;;;;;;;14.38;7.25;;;;;;;5.00;65.17;99066.59;4235511;83;21584;-84
2022/04/10 17:24:14;;;;;;;15.70;5.58;;;;;;;4.82;65.79;99062.50;4251257;83;21042;-86
2022/04/10 17:30:15;;;;;;;9.75;5.33;;;;;;;4.80;66.22;99045.20;4252124;83;21089;-86
2022/04/10 17:36:17;;;;;;;12.90;6.37;;;;;;;4.65;67.06;99052.61;4233605;83;21941;-88
2022/04/10 17:42:18;;;;;;;12.63;5.47;;;;;;;4.58;67.28;99067.84;4248856;83;21504;-87
2022/04/10 17:48:19;;;;;;;7.97;4.72;;;;;;;4.46;67.12;99087.55;4255827;83;21763;-85
2022/04/10 17:54:22;;;;;;;7.37;4.53;;;;;;;4.18;67.49;99089.22;4246965;83;21002;-86
2022/04/10 18:00:24;;;;;;;12.15;5.25;;;;;;;3.85;67.45;99095.68;4230976;83;21033;-86
2022/04/10 18:06:25;;;;;;;17.23;7.50;;;;;;;3.71;68.46;99105.95;4114714;82;10000198;-86
2022/04/10 18:12:27;;;;;;;12.28;7.00;;;;;;;3.60;68.47;99110.95;4235607;83;21088;-87
2022/04/10 18:18:30;;;;;;;23.57;11.95;;;;;;;3.41;67.92;99110.56;4246096;83;20999;-86
2022/04/10 18:24:32;;;;;;;19.75;11.08;;;;;;;3.20;68.82;99117.80;4268407;83;21027;-86
2022/04/10 18:30:33;;;;;;;27.52;15.20;;;;;;;3.19;69.79;99126.45;4238983;83;21139;-86
2022/04/10 18:36:34;;;;;;;30.30;15.48;;;;;;;3.08;70.03;99126.59;4249303;83;21871;-86
2022/04/10 18:42:41;;;;;;;32.55;15.55;;;;;;;2.95;70.24;99128.12;4248285;83;21050;-85
2022/04/10 18:54:50;;;;;;;27.90;15.32;;;;;;;2.61;71.23;99130.33;4212127;83;21046;-86
2022/04/10 19:00:52;;;;;;;31.17;17.02;;;;;;;2.47;71.56;99132.95;4250493;83;21005;-86
2022/04/10 19:06:53;;;;;;;25.35;14.20;;;;;;;2.37;71.67;99134.61;4231374;83;21846;-87
2022/04/10 19:12:56;;;;;;;32.88;16.07;;;;;;;2.21;72.20;99136.22;4239800;83;21024;-86
2022/04/10 19:18:58;;;;;;;33.90;16.95;;;;;;;2.12;71.75;99131.34;4249186;82;20999;-86
2022/04/10 19:25:00;;;;;;;41.90;20.25;;;;;;;1.87;72.36;99130.73;4251291;83;21055;-87
2022/04/10 19:31:02;;;;;;;44.80;23.95;;;;;;;1.66;72.50;99133.80;4244375;83;21081;-87
2022/04/10 19:37:04;;;;;;;35.43;20.48;;;;;;;1.46;72.65;99139.99;4095739;84;10000278;-87
2022/04/10 19:43:05;;;;;;;43.50;22.75;;;;;;;1.32;73.09;99139.30;4187956;83;21035;-87
2022/04/10 19:49:07;;;;;;;48.23;22.55;;;;;;;1.24;72.80;99144.10;4195498;84;21003;-86
2022/04/10 19:55:08;;;;;;;33.78;18.92;;;;;;;1.31;73.40;99147.70;4194541;83;21047;-86
2022/04/10 20:01:10;;;;;;;37.85;22.40;;;;;;;1.43;75.49;99151.41;4205427;83;21008;-86
2022/04/10 20:07:11;;;;;;;39.98;22.67;;;;;;;1.55;75.76;99157.00;4187106;83;20968;-87
2022/04/10 20:13:13;;;;;;;49.23;25.50;;;;;;;1.72;76.44;99162.23;4190673;84;20987;-87
2022/04/10 20:19:14;;;;;;;82.88;38.10;;;;;;;1.83;75.97;99167.03;4207270;84;21009;-88
2022/04/10 20:25:16;;;;;;;68.78;33.08;;;;;;;1.81;76.71;99153.59;4169383;84;21089;-87
2022/04/10 20:31:18;;;;;;;73.57;33.90;;;;;;;1.96;77.28;99162.63;4211967;83;22095;-87
2022/04/10 20:37:20;;;;;;;76.33;37.33;;;;;;;1.97;77.21;99164.20;4196504;83;21038;-87
2022/04/10 20:43:22;;;;;;;66.05;30.75;;;;;;;2.02;77.27;99162.71;4203565;84;21060;-86
2022/04/10 20:49:23;;;;;;;67.75;33.00;;;;;;;1.90;75.67;99174.11;4198863;84;21035;-86
2022/04/10 20:55:25;;;;;;;68.55;32.73;;;;;;;1.70;75.86;99171.98;4204165;84;21040;-86
2022/04/10 21:01:27;;;;;;;64.32;32.45;;;;;;;1.59;76.40;99174.72;4184295;84;21091;-86
2022/04/10 21:07:28;;;;;;;66.72;32.58;;;;;;;1.63;77.83;99167.58;4195772;84;21019;-85
2022/04/10 21:13:29;;;;;;;58.40;30.95;;;;;;;1.63;77.96;99169.73;4198996;84;21043;-86
2022/04/10 21:19:31;;;;;;;61.60;30.23;;;;;;;1.61;78.12;99174.64;4188698;83;21101;-87
2022/04/10 21:25:32;;;;;;;57.60;30.02;;;;;;;1.49;78.14;99172.28;4196597;84;21963;-86
2022/04/10 21:31:33;;;;;;;65.05;30.57;;;;;;;1.44;78.45;99170.52;4195117;84;21101;-86
2022/04/10 21:37:35;;;;;;;62.33;30.10;;;;;;;1.35;78.57;99164.84;4220771;82;20999;-87
2022/04/10 21:43:37;;;;;;;55.98;27.67;;;;;;;1.46;79.04;99183.16;4216125;82;21538;-86
2022/04/10 21:49:39;;;;;;;52.70;27.87;;;;;;;1.37;77.99;99183.67;4215341;82;21543;-86
2022/04/10 21:55:40;;;;;;;57.83;28.02;;;;;;;1.34;79.45;99192.94;4222929;82;21628;-86
2022/04/10 22:01:42;;;;;;;54.27;27.82;;;;;;;1.40;79.57;99201.13;4145652;85;21116;-87
2022/04/10 22:07:43;;;;;;;57.25;28.12;;;;;;;1.40;79.25;99197.09;4150333;85;21531;-86
2022/04/10 22:13:44;;;;;;;54.25;28.40;;;;;;;1.39;80.04;99203.02;4078119;85;21591;-86
2022/04/10 22:19:45;;;;;;;56.05;28.07;;;;;;;1.47;80.00;99194.18;4084874;85;21589;-86
2022/04/10 22:25:47;;;;;;;49.35;25.35;;;;;;;1.42;79.93;99198.39;4145905;84;21059;-87
2022/04/10 22:31:48;;;;;;;48.70;25.92;;;;;;;1.31;78.96;99199.75;4144140;84;21113;-86
2022/04/10 22:37:49;;;;;;;61.55;27.52;;;;;;;1.15;79.05;99203.94;4148783;85;21088;-86
2022/04/10 22:43:50;;;;;;;55.28;30.00;;;;;;;1.00;79.53;99199.48;4149985;85;21098;-86
2022/04/10 22:49:51;;;;;;;69.53;34.60;;;;;;;0.89;79.56;99202.95;4078706;86;22090;-86
2022/04/10 22:55:53;;;;;;;71.05;35.38;;;;;;;0.76;79.66;99214.61;4149854;84;21028;-85
2022/04/10 23:01:54;;;;;;;65.15;33.63;;;;;;;0.63;80.58;99215.98;4152313;84;21586;-86
2022/04/10 23:07:55;;;;;;;65.97;33.85;;;;;;;0.63;80.58;99215.98;4143665;84;20999;-86
2022/04/10 23:13:57;;;;;;;68.65;35.50;;;;;;;0.49;80.29;99211.99;4149727;85;21609;-86
2022/04/10 23:19:58;;;;;;;71.57;34.88;;;;;;;0.32;80.22;99209.15;4114291;85;21579;-86
2022/04/10 23:25:59;;;;;;;67.70;33.53;;;;;;;0.32;80.22;99209.15;4151873;85;21043;-86
2022/04/10 23:32:00;;;;;;;71.70;33.88;;;;;;;0.04;80.72;99222.41;4147019;84;21043;-87
2022/04/10 23:38:02;;;;;;;65.00;31.02;;;;;;;0.04;80.72;99222.41;4160056;84;21122;-86
2022/04/10 23:44:04;;;;;;;67.27;34.30;;;;;;;-0.12;80.61;99224.61;4164106;84;21121;-86
2022/04/10 23:50:07;;;;;;;69.30;30.52;;;;;;;-0.15;81.10;99213.64;4090240;85;21043;-86
2022/04/10 23:56:08;;;;;;;57.08;29.00;;;;;;;-0.17;81.36;99216.63;4143137;84;21038;-87
